KBILKCOD

Guest
Details From KBIL - Billings Logan Intl
To KCOD - Yellowstone Rgnl
Flight Number -
Tags generated
Created
Modified
Stats Distance 80 nm / 148 km
Max Altitude 3,700 ft / 1,128 m
Waypoints 3
Social Downloads 2
Likes 0
Share VATSIM

Download

Looking for another format? Having issues loading an existing format? Contact us
Advertisement - Login to hide

Notes

Basic altitude profile: - Ascent Rate: 2500ft/min - Ascent Speed: 250kts - Cruise Altitude: 35000ft - Cruise Speed: 420kts - Descent Rate: 1500ft/min - Descent Speed: 250kts Options: - Use NATs: yes - Use PACOTS: yes - Use low airways: yes - Use high airways: yes

Route

KBIL SEZJI KCOD

ID Type Via Altitude Latitude Longitude Leg Dist Tot Dist Heading (true) Name
O KBIL APT - 0 ft / 0 m 45.80771˚ -108.54641˚ - 0 nm - Billings Logan Intl
SEZJI FIX - 3,700 ft / 1,128 m 44.80328˚ -108.91350˚ 62 nm 62 nm 195° / 194° -
O KCOD APT - 0 ft / 0 m 44.52019˚ -109.02381˚ 17 nm 79 nm 196° / 195° Yellowstone Rgnl

Altitude Profile

Advertisement - Login to hide

KBIL

Details ICAO KBIL (BIL)
Name Billings Logan Intl
Region United States
Timezone America/Denver (UTC-7.0)
Stats Elevation 3,652 ft / 1,113 m (AMSL)
Location 45.807706° -108.546410°
Runways 3
Magnetic Variation 10.691° E

METAR

KBIL 161708Z 10005KT 1 1/2SM -SN BR BKN003 BKN018 OVC023 M01/M01 A2998

Decode

TAF

TAF KBIL 161138Z 1612/1712 06008KT 1/2SM SN FG VV002 FM161400 04008KT 3SM -SN BR OVC015 FM161700 05006KT 5SM -SN BR OVC015 FM162000 03005KT P6SM OVC020 FM170400 24008KT P6SM BKN070

Decode

Departure Runways

ID Width Length Bearing (true) Bearing (mag) Surface Threshold Offset Overrun Length
07 75 ft / 23 m 5,486 ft / 1,672 m 83.96° 73.27° Asphalt 0 ft / 0 m 0 ft / 0 m
10L 150 ft / 46 m 10,493 ft / 3,198 m 111.77° 101.08° Asphalt 0 ft / 0 m 1,000 ft / 305 m
10R 75 ft / 23 m 3,792 ft / 1,156 m 111.71° 101.02° Asphalt 0 ft / 0 m 0 ft / 0 m
25 75 ft / 23 m 5,486 ft / 1,672 m 263.97° 253.28° Asphalt 0 ft / 0 m 0 ft / 0 m
28L 75 ft / 23 m 3,792 ft / 1,156 m 291.72° 281.03° Asphalt 0 ft / 0 m 0 ft / 0 m
28R 150 ft / 46 m 10,493 ft / 3,198 m 291.80° 281.11° Asphalt 0 ft / 0 m 1,000 ft / 305 m

KCOD

Details ICAO KCOD (COD)
Name Yellowstone Rgnl
Region United States
Timezone America/Denver (UTC-7.0)
Stats Elevation 5,102 ft / 1,555 m (AMSL)
Location 44.520187° -109.023806°
Runways 1
Magnetic Variation 10.756° E

METAR

KCOD 161718Z AUTO 00000KT 1 1/4SM -SN BR SCT003 BKN007 OVC011 01/M01 A2989 RMK AO2 P0000 FZRANO

Decode

TAF

KCOD 161302Z 1613/1712 01011KT 2SM -SN SCT006 OVC015 TEMPO 1613/1616 3/4SM -SN BKN006 FM170200 31007KT P6SM BKN025 FM170600 23008KT P6SM FEW080 AMD LTD TO CLD VIS AND WIND

Decode

Destination Runways

ID Width Length Bearing (true) Bearing (mag) Surface Threshold Offset Overrun Length
04 98 ft / 30 m 8,264 ft / 2,519 m 52.19° 41.43° Asphalt 689 ft / 210 m 236 ft / 72 m
22 98 ft / 30 m 8,264 ft / 2,519 m 232.21° 221.45° Asphalt 397 ft / 121 m 203 ft / 62 m

Popular Alternatives